createdAt,value
2022-09-05T00:00:11.491Z,5.10
2022-09-05T00:03:04.333Z,5.43
2022-09-05T00:06:03.754Z,5.00
2022-09-05T00:09:10.860Z,4.72
2022-09-05T00:11:44.073Z,5.10
2022-09-05T00:15:14.850Z,5.13
2022-09-05T00:22:52.624Z,5.43
2022-09-05T00:24:21.740Z,5.47
2022-09-05T00:24:45.605Z,5.32
2022-09-05T00:27:03.029Z,4.90
2022-09-05T00:31:05.701Z,4.80
2022-09-05T00:33:27.100Z,4.90
2022-09-05T00:36:21.722Z,5.13
2022-09-05T00:38:59.842Z,4.80
2022-09-05T00:41:26.907Z,5.25
2022-09-05T00:43:55.239Z,5.50
2022-09-05T00:46:26.960Z,5.20
2022-09-05T00:49:17.933Z,4.95
2022-09-05T00:51:56.727Z,4.85
2022-09-05T00:54:26.315Z,5.03
2022-09-05T00:57:47.950Z,4.97
2022-09-05T01:00:24.834Z,4.78
2022-09-05T01:03:09.662Z,4.97
2022-09-05T01:06:00.972Z,5.10
2022-09-05T01:08:52.187Z,4.82
2022-09-05T01:11:37.871Z,4.75
2022-09-05T01:14:22.877Z,4.82
2022-09-05T01:17:11.189Z,4.38
2022-09-05T01:20:02.327Z,4.80
2022-09-05T01:22:49.262Z,4.82
2022-09-05T01:25:34.251Z,4.78
2022-09-05T01:31:17.343Z,4.85
2022-09-05T01:34:08.920Z,4.85
2022-09-05T01:37:05.144Z,4.70
2022-09-05T01:40:12.205Z,4.50
2022-09-05T01:43:06.206Z,4.88
2022-09-05T01:45:45.909Z,4.97
2022-09-05T01:48:21.634Z,5.00
2022-09-05T01:51:00.429Z,4.93
2022-09-05T01:53:54.498Z,5.05
2022-09-05T01:56:30.328Z,4.60
2022-09-05T01:59:12.322Z,4.75
2022-09-05T02:01:41.897Z,4.82
2022-09-05T02:04:33.455Z,4.32
2022-09-05T02:07:20.081Z,4.55
2022-09-05T02:10:30.072Z,4.83
2022-09-05T02:13:03.492Z,4.63
2022-09-05T02:15:45.149Z,4.33
2022-09-05T02:18:29.698Z,4.80
2022-09-05T02:20:58.699Z,4.72
2022-09-05T02:23:44.271Z,4.78
2022-09-05T02:26:26.537Z,4.88
2022-09-05T02:28:57.481Z,4.70
2022-09-05T02:31:39.763Z,4.60
2022-09-05T02:34:41.812Z,4.88
2022-09-05T02:37:12.919Z,4.60
2022-09-05T02:45:01.614Z,5.22
2022-09-05T02:45:21.695Z,4.20
2022-09-05T02:46:44.529Z,4.50
2022-09-05T02:49:43.160Z,4.63
2022-09-05T02:57:29.377Z,4.20
2022-09-05T02:57:35.750Z,4.70
2022-09-05T02:58:08.489Z,4.53
2022-09-05T03:00:42.422Z,4.68
2022-09-05T03:03:29.690Z,4.40
2022-09-05T03:06:05.599Z,4.80
2022-09-05T03:08:41.216Z,4.90
2022-09-05T03:11:36.506Z,4.80
2022-09-05T03:14:18.556Z,4.30
2022-09-05T03:16:47.396Z,4.53
2022-09-05T03:19:31.061Z,4.78
2022-09-05T03:22:36.909Z,4.45
2022-09-05T03:25:10.325Z,4.22
2022-09-05T03:28:14.869Z,4.45
2022-09-05T03:30:50.374Z,3.95
2022-09-05T03:33:43.223Z,4.60
2022-09-05T03:36:22.133Z,4.78
2022-09-05T03:38:49.030Z,5.00
2022-09-05T03:41:40.298Z,5.82
2022-09-05T03:44:40.710Z,6.28
2022-09-05T03:47:37.000Z,6.70
2022-09-05T03:54:53.073Z,5.30
2022-09-05T03:57:11.961Z,5.20
2022-09-05T03:57:18.603Z,4.82
2022-09-05T03:59:46.352Z,5.18
2022-09-05T04:07:45.760Z,5.40
2022-09-05T04:08:14.240Z,8.35
2022-09-05T04:08:29.693Z,6.40
2022-09-05T04:11:04.189Z,7.80
2022-09-05T04:13:35.903Z,7.65
2022-09-05T04:16:14.997Z,7.70
2022-09-05T04:18:51.679Z,9.80
2022-09-05T04:21:31.359Z,11.15
2022-09-05T04:24:23.338Z,9.35
2022-09-05T04:27:27.826Z,9.32
2022-09-05T04:29:58.672Z,7.90
2022-09-05T04:32:40.629Z,8.50
2022-09-05T04:35:07.763Z,7.38
2022-09-05T04:37:48.443Z,7.45
2022-09-05T04:40:49.714Z,7.65
2022-09-05T04:43:41.497Z,7.28
2022-09-05T04:46:29.725Z,7.43
2022-09-05T04:49:06.268Z,7.00
2022-09-05T04:52:00.386Z,7.57
2022-09-05T04:54:37.248Z,11.70
2022-09-05T04:57:16.170Z,12.80
2022-09-05T05:03:12.948Z,13.57
2022-09-05T05:06:10.661Z,14.82
2022-09-05T05:06:16.910Z,12.57
2022-09-05T05:08:47.409Z,12.13
2022-09-05T05:17:57.708Z,9.05
2022-09-05T05:18:01.502Z,10.32
2022-09-05T05:18:06.250Z,10.13
2022-09-05T05:20:40.235Z,10.02
2022-09-05T05:23:12.342Z,9.23
2022-09-05T05:25:56.106Z,8.65
2022-09-05T05:28:44.969Z,8.00
2022-09-05T05:31:26.413Z,8.27
2022-09-05T05:33:53.488Z,8.40
2022-09-05T05:36:24.632Z,8.10
2022-09-05T05:39:17.781Z,9.00
2022-09-05T05:41:54.167Z,7.65
2022-09-05T05:47:32.326Z,10.07
2022-09-05T05:50:11.794Z,14.43
2022-09-05T05:52:57.770Z,13.73
2022-09-05T05:55:52.070Z,12.10
2022-09-05T05:58:32.629Z,11.40
2022-09-05T06:01:30.323Z,14.20
2022-09-05T06:04:44.978Z,15.00
2022-09-05T06:07:25.647Z,14.10
2022-09-05T06:14:44.791Z,15.13
2022-09-05T06:15:01.624Z,14.90
2022-09-05T06:16:49.109Z,14.43
2022-09-05T06:20:15.016Z,16.73
2022-09-05T06:22:53.053Z,16.50
2022-09-05T06:25:41.593Z,15.68
2022-09-05T06:28:18.853Z,14.90
2022-09-05T06:31:29.039Z,13.80
2022-09-05T06:33:52.356Z,16.10
2022-09-05T06:36:34.561Z,14.52
2022-09-05T06:39:41.006Z,16.38
2022-09-05T06:42:42.762Z,14.82
2022-09-05T06:45:34.414Z,14.43
2022-09-05T06:48:45.708Z,14.98
2022-09-05T06:51:26.027Z,17.60
2022-09-05T06:53:55.726Z,14.85
2022-09-05T06:56:56.399Z,18.02
2022-09-05T06:59:48.872Z,17.35
2022-09-05T07:02:42.710Z,16.30
2022-09-05T07:05:23.580Z,16.20
2022-09-05T07:08:18.446Z,16.52
2022-09-05T07:11:11.275Z,15.65
2022-09-05T07:13:56.865Z,15.38
2022-09-05T07:16:38.496Z,16.05
2022-09-05T07:19:25.624Z,15.55
2022-09-05T07:22:48.506Z,13.05
2022-09-05T07:25:18.733Z,12.80
2022-09-05T07:28:19.573Z,13.73
2022-09-05T07:30:46.793Z,14.30
2022-09-05T07:33:18.817Z,14.98
2022-09-05T07:35:45.861Z,12.75
2022-09-05T07:38:18.037Z,14.45
2022-09-05T07:41:18.674Z,15.70
2022-09-05T07:43:46.505Z,14.40
2022-09-05T07:46:16.223Z,13.35
2022-09-05T07:49:07.983Z,13.48
2022-09-05T07:56:49.150Z,11.80
2022-09-05T07:56:49.969Z,13.70
2022-09-05T07:57:46.856Z,11.45
2022-09-05T08:00:25.601Z,10.63
2022-09-05T08:02:55.179Z,10.25
2022-09-05T08:05:30.189Z,10.70
2022-09-05T08:08:01.890Z,10.63
2022-09-05T08:11:14.481Z,10.40
2022-09-05T08:13:40.005Z,10.50
2022-09-05T08:16:13.409Z,10.65
2022-09-05T08:19:24.575Z,9.57
2022-09-05T08:21:51.992Z,10.18
2022-09-05T08:24:47.138Z,9.93
2022-09-05T08:27:24.771Z,10.48
2022-09-05T08:30:27.269Z,9.70
2022-09-05T08:32:49.622Z,10.38
2022-09-05T08:35:26.706Z,10.02
2022-09-05T08:37:54.560Z,9.52
2022-09-05T08:40:26.189Z,9.32
2022-09-05T08:46:37.717Z,8.43
2022-09-05T08:46:47.737Z,9.00
2022-09-05T08:49:11.255Z,8.60
2022-09-05T08:52:16.933Z,8.20
2022-09-05T08:54:48.035Z,7.95
2022-09-05T08:57:36.674Z,7.68
2022-09-05T09:00:18.934Z,7.45
2022-09-05T09:03:16.241Z,7.57
2022-09-05T09:06:13.580Z,7.55
2022-09-05T09:09:11.125Z,6.95
2022-09-05T09:11:45.243Z,7.25
2022-09-05T09:14:30.308Z,7.45
2022-09-05T09:17:16.007Z,6.40
2022-09-05T09:19:48.980Z,7.20
2022-09-05T09:22:21.054Z,6.70
2022-09-05T09:25:15.859Z,6.78
2022-09-05T09:28:45.287Z,6.55
2022-09-05T09:30:57.484Z,6.47
2022-09-05T09:33:34.082Z,6.75
2022-09-05T09:36:30.536Z,6.53
2022-09-05T09:39:38.864Z,8.98
2022-09-05T09:42:32.514Z,7.03
2022-09-05T09:45:00.569Z,6.13
2022-09-05T09:48:08.583Z,6.63
2022-09-05T09:50:58.507Z,6.03
2022-09-05T09:54:04.389Z,5.03
2022-09-05T09:56:55.787Z,4.47
2022-09-05T09:59:34.051Z,6.22
2022-09-05T10:06:50.973Z,5.15
2022-09-05T10:10:39.760Z,6.68
2022-09-05T10:10:49.033Z,6.30
2022-09-05T10:15:31.220Z,4.25
2022-09-05T10:18:24.504Z,4.47
2022-09-05T10:21:16.327Z,39.40
2022-09-05T10:24:16.835Z,5.13
2022-09-05T10:27:21.171Z,4.75
2022-09-05T10:30:09.167Z,4.00
2022-09-05T10:35:04.672Z,5.18
2022-09-05T10:35:42.664Z,4.60
2022-09-05T10:38:11.533Z,4.80
2022-09-05T10:41:16.148Z,4.50
2022-09-05T10:43:31.924Z,3.90
2022-09-05T10:46:01.787Z,3.78
2022-09-05T10:48:41.399Z,4.13
2022-09-05T10:51:41.050Z,3.42
2022-09-05T10:54:38.059Z,3.55
2022-09-05T10:57:17.195Z,3.45
2022-09-05T11:02:19.479Z,6.13
2022-09-05T11:02:57.745Z,5.68
2022-09-05T11:05:37.099Z,12.25
2022-09-05T11:08:11.646Z,4.93
2022-09-05T11:11:09.634Z,4.72
2022-09-05T11:13:50.020Z,4.45
2022-09-05T11:16:49.581Z,5.57
2022-09-05T11:19:39.885Z,4.63
2022-09-05T11:22:22.506Z,4.32
2022-09-05T11:24:56.205Z,4.28
2022-09-05T11:27:40.240Z,4.35
2022-09-05T11:30:29.234Z,4.43
2022-09-05T11:39:45.990Z,4.20
2022-09-05T11:39:55.186Z,7.15
2022-09-05T11:39:59.857Z,3.67
2022-09-05T11:42:23.376Z,4.72
2022-09-05T11:45:21.036Z,5.78
2022-09-05T11:48:02.494Z,4.63
2022-09-05T11:50:59.526Z,6.97
2022-09-05T11:54:06.825Z,4.07
2022-09-05T11:56:49.057Z,11.18
2022-09-05T11:59:34.244Z,3.90
2022-09-05T12:02:38.828Z,4.20
2022-09-05T12:05:50.306Z,4.18
2022-09-05T12:08:31.386Z,3.40
2022-09-05T12:10:58.651Z,4.88
2022-09-05T12:13:31.987Z,7.18
2022-09-05T12:16:08.206Z,4.93
2022-09-05T12:18:58.483Z,3.53
2022-09-05T12:21:39.752Z,4.30
2022-09-05T12:25:24.832Z,3.97
2022-09-05T12:27:39.964Z,4.07
2022-09-05T12:30:36.404Z,3.85
2022-09-05T12:36:03.703Z,3.53
2022-09-05T12:40:45.163Z,5.65
2022-09-05T12:40:58.415Z,3.33
2022-09-05T12:42:15.154Z,6.80
2022-09-05T12:45:28.168Z,7.28
2022-09-05T12:48:25.918Z,5.68
2022-09-05T12:51:05.828Z,4.60
2022-09-05T12:53:43.500Z,4.72
2022-09-05T12:58:37.299Z,5.15
2022-09-05T13:03:02.089Z,3.83
2022-09-05T13:03:09.582Z,3.47
2022-09-05T13:05:12.630Z,3.70
2022-09-05T13:07:43.032Z,5.20
2022-09-05T13:14:49.862Z,5.70
2022-09-05T13:14:57.458Z,5.05
2022-09-05T13:15:56.920Z,3.55
2022-09-05T13:18:30.947Z,3.40
2022-09-05T13:21:04.469Z,3.75
2022-09-05T13:23:32.837Z,3.90
2022-09-05T13:26:08.084Z,3.45
2022-09-05T13:29:00.186Z,3.40
2022-09-05T13:38:03.339Z,4.50
2022-09-05T13:38:04.149Z,3.33
2022-09-05T13:38:13.928Z,4.55
2022-09-05T13:40:23.141Z,4.28
2022-09-05T13:43:00.210Z,10.05
2022-09-05T13:45:29.568Z,4.68
2022-09-05T13:47:57.960Z,4.53
2022-09-05T13:50:25.705Z,4.22
2022-09-05T13:53:17.454Z,3.90
2022-09-05T13:55:54.078Z,3.70
2022-09-05T13:58:48.032Z,4.60
2022-09-05T14:01:44.165Z,3.70
2022-09-05T14:10:16.070Z,3.60
2022-09-05T14:13:02.541Z,3.85
2022-09-05T14:15:35.473Z,4.38
2022-09-05T14:18:19.945Z,4.45
2022-09-05T14:21:18.938Z,4.15
2022-09-05T14:23:53.732Z,3.83
2022-09-05T14:26:53.092Z,3.95
2022-09-05T14:29:26.267Z,4.10
2022-09-05T14:37:37.383Z,3.90
2022-09-05T14:37:50.881Z,3.67
2022-09-05T14:38:09.302Z,4.10
2022-09-05T14:41:17.998Z,3.60
2022-09-05T14:43:47.904Z,3.58
2022-09-05T14:46:29.583Z,3.28
2022-09-05T14:49:11.382Z,3.30
2022-09-05T14:51:39.420Z,3.17
2022-09-05T15:00:41.578Z,3.13
2022-09-05T15:02:57.901Z,2.95
2022-09-05T15:03:02.596Z,3.33
2022-09-05T15:05:40.062Z,3.05
2022-09-05T15:08:22.703Z,3.20
2022-09-05T15:12:14.877Z,3.00
2022-09-05T15:14:11.187Z,2.80
2022-09-05T15:16:43.577Z,3.25
2022-09-05T15:20:05.676Z,2.78
2022-09-05T15:22:41.991Z,2.97
2022-09-05T15:25:17.274Z,2.72
2022-09-05T15:27:46.244Z,2.60
2022-09-05T15:30:35.887Z,2.63
2022-09-05T15:33:25.899Z,2.95
2022-09-05T15:35:53.167Z,2.78
2022-09-05T15:38:29.870Z,3.05
2022-09-05T15:41:21.828Z,2.88
2022-09-05T15:43:51.828Z,2.75
2022-09-05T15:46:37.702Z,2.95
2022-09-05T15:49:08.978Z,2.78
2022-09-05T15:51:48.532Z,2.83
2022-09-05T15:54:37.594Z,2.67
2022-09-05T15:57:08.978Z,2.90
2022-09-05T15:59:49.203Z,2.55
2022-09-05T16:02:24.872Z,2.45
2022-09-05T16:10:27.143Z,2.90
2022-09-05T16:10:35.760Z,2.55
2022-09-05T16:11:58.146Z,2.50
2022-09-05T16:14:16.887Z,2.72
2022-09-05T16:23:29.335Z,2.50
2022-09-05T16:23:33.827Z,2.60
2022-09-05T16:23:34.889Z,2.67
2022-09-05T16:25:34.645Z,2.50
2022-09-05T16:28:03.872Z,2.53
2022-09-05T16:30:38.509Z,2.53
2022-09-05T16:33:07.792Z,2.60
2022-09-05T16:35:37.994Z,2.50
2022-09-05T16:38:18.884Z,2.50
2022-09-05T16:41:03.745Z,2.40
2022-09-05T16:43:36.462Z,2.60
2022-09-05T16:46:49.382Z,2.50
2022-09-05T16:49:42.063Z,2.45
2022-09-05T16:52:17.207Z,2.20
2022-09-05T16:55:03.267Z,2.58
2022-09-05T16:57:34.496Z,2.35
2022-09-05T17:00:03.110Z,2.47
2022-09-05T17:02:39.158Z,2.35
2022-09-05T17:05:30.931Z,2.15
2022-09-05T17:08:00.761Z,2.30
2022-09-05T17:10:50.715Z,2.22
2022-09-05T17:13:45.477Z,2.10
2022-09-05T17:16:29.511Z,2.10
2022-09-05T17:18:59.445Z,2.65
2022-09-05T17:24:11.005Z,2.40
2022-09-05T17:29:18.357Z,2.15
2022-09-05T17:29:41.271Z,2.13
2022-09-05T17:31:25.172Z,2.40
2022-09-05T17:32:53.248Z,2.30
2022-09-05T17:35:30.133Z,2.15
2022-09-05T17:38:12.116Z,2.22
2022-09-05T17:40:59.431Z,1.90
2022-09-05T17:43:33.102Z,2.03
2022-09-05T17:46:12.274Z,2.10
2022-09-05T17:48:49.241Z,2.20
2022-09-05T17:51:35.156Z,2.13
2022-09-05T17:54:08.596Z,2.20
2022-09-05T17:56:45.496Z,2.10
2022-09-05T17:59:24.751Z,2.00
2022-09-05T18:02:06.911Z,2.10
2022-09-05T18:04:39.850Z,2.20
2022-09-05T18:07:31.162Z,2.10
2022-09-05T18:10:15.349Z,1.90
2022-09-05T18:13:12.724Z,2.10
2022-09-05T18:15:36.175Z,1.98
2022-09-05T18:18:08.734Z,2.10
2022-09-05T18:21:12.214Z,1.98
2022-09-05T18:26:39.605Z,1.98
2022-09-05T18:32:55.096Z,1.83
2022-09-05T18:35:41.941Z,2.30
2022-09-05T18:38:17.584Z,2.00
2022-09-05T18:41:00.460Z,2.47
2022-09-05T18:43:46.412Z,2.20
2022-09-05T18:46:32.049Z,2.08
2022-09-05T18:50:21.963Z,2.03
2022-09-05T18:52:26.736Z,2.00
2022-09-05T18:55:46.398Z,2.17
2022-09-05T18:57:48.226Z,2.20
2022-09-05T19:00:15.585Z,2.15
2022-09-05T19:02:58.113Z,2.40
2022-09-05T19:05:40.414Z,2.40
2022-09-05T19:08:32.168Z,2.20
2022-09-05T19:11:00.985Z,2.53
2022-09-05T19:13:38.782Z,2.03
2022-09-05T19:16:43.992Z,2.28
2022-09-05T19:19:16.065Z,2.30
2022-09-05T19:22:09.079Z,2.15
2022-09-05T19:24:45.155Z,2.65
2022-09-05T19:33:37.396Z,2.15
2022-09-05T19:36:54.779Z,2.60
2022-09-05T19:36:56.709Z,2.72
2022-09-05T19:37:08.358Z,2.60
2022-09-05T19:38:24.062Z,2.47
2022-09-05T19:47:26.709Z,2.40
2022-09-05T19:47:39.846Z,2.50
2022-09-05T19:47:40.611Z,2.25
2022-09-05T19:49:14.367Z,2.70
2022-09-05T19:51:41.365Z,2.80
2022-09-05T19:54:08.537Z,2.78
2022-09-05T19:56:43.653Z,2.72
2022-09-05T19:59:22.917Z,2.50
2022-09-05T20:01:51.875Z,2.65
2022-09-05T20:04:19.597Z,2.58
2022-09-05T20:06:47.494Z,2.55
2022-09-05T20:09:24.752Z,2.50
2022-09-05T20:11:57.881Z,2.50
2022-09-05T20:14:32.428Z,2.40
2022-09-05T20:17:23.496Z,2.88
2022-09-05T20:20:25.689Z,2.47
2022-09-05T20:23:01.811Z,2.50
2022-09-05T20:25:35.900Z,3.05
2022-09-05T20:28:09.785Z,2.92
2022-09-05T20:30:40.396Z,2.50
2022-09-05T20:33:27.565Z,2.78
2022-09-05T20:43:10.427Z,2.20
2022-09-05T20:43:20.295Z,2.60
2022-09-05T20:43:23.647Z,2.40
2022-09-05T20:44:25.120Z,2.50
2022-09-05T20:52:13.883Z,2.70
2022-09-05T20:54:07.263Z,2.53
2022-09-05T20:54:20.747Z,2.60
2022-09-05T20:55:39.977Z,2.80
2022-09-05T20:58:15.755Z,2.92
2022-09-05T21:01:20.465Z,2.60
2022-09-05T21:03:36.701Z,2.67
2022-09-05T21:06:23.618Z,2.80
2022-09-05T21:08:55.409Z,2.42
2022-09-05T21:11:29.941Z,2.83
2022-09-05T21:13:57.275Z,2.80
2022-09-05T21:16:29.016Z,2.75
2022-09-05T21:18:55.943Z,2.50
2022-09-05T21:21:29.263Z,2.53
2022-09-05T21:24:15.929Z,2.63
2022-09-05T21:26:44.117Z,2.70
2022-09-05T21:29:10.874Z,2.70
2022-09-05T21:31:49.233Z,2.80
2022-09-05T21:34:29.473Z,2.50
2022-09-05T21:37:06.396Z,2.55
2022-09-05T21:39:39.940Z,2.65
2022-09-05T21:42:59.847Z,2.67
2022-09-05T21:47:35.074Z,2.85
2022-09-05T21:47:52.174Z,2.60
2022-09-05T21:50:31.303Z,2.50
2022-09-05T21:53:46.996Z,2.80
2022-09-05T21:59:18.595Z,2.80
2022-09-05T21:59:19.731Z,2.67
2022-09-05T22:01:48.689Z,3.00
2022-09-05T22:04:12.893Z,2.80
2022-09-05T22:06:39.875Z,2.47
2022-09-05T22:09:13.092Z,2.78
2022-09-05T22:14:09.138Z,3.10
2022-09-05T22:16:43.403Z,2.80
2022-09-05T22:19:17.862Z,2.90
2022-09-05T22:21:44.730Z,2.80
2022-09-05T22:24:11.646Z,2.72
2022-09-05T22:27:11.815Z,2.83
2022-09-05T22:29:35.466Z,2.90
2022-09-05T22:32:02.644Z,2.97
2022-09-05T22:34:29.540Z,2.85
2022-09-05T22:36:56.477Z,3.20
2022-09-05T22:39:25.620Z,2.80
2022-09-05T22:42:10.322Z,2.70
2022-09-05T22:44:40.706Z,2.80
2022-09-05T22:47:08.928Z,2.70
2022-09-05T22:49:36.590Z,3.00
2022-09-05T22:52:05.323Z,2.95
2022-09-05T22:54:32.278Z,2.70
2022-09-05T22:56:59.163Z,2.80
2022-09-05T22:59:26.116Z,2.78
2022-09-05T23:01:53.098Z,3.30
2022-09-05T23:04:20.118Z,2.90
2022-09-05T23:06:47.149Z,3.08
2022-09-05T23:09:14.049Z,2.88
2022-09-05T23:11:40.902Z,3.00
2022-09-05T23:14:07.813Z,3.20
2022-09-05T23:16:34.679Z,2.60
2022-09-05T23:19:01.614Z,2.83
2022-09-05T23:21:28.565Z,2.70
2022-09-05T23:23:55.430Z,2.80
2022-09-05T23:26:22.472Z,3.20
2022-09-05T23:28:49.456Z,3.00
2022-09-05T23:31:16.393Z,3.20
2022-09-05T23:33:43.372Z,2.95
2022-09-05T23:36:13.630Z,2.95
2022-09-05T23:38:43.531Z,3.13
2022-09-05T23:41:12.128Z,3.30
2022-09-05T23:43:39.051Z,2.80
2022-09-05T23:46:05.983Z,2.95
2022-09-05T23:48:33.042Z,2.97
2022-09-05T23:51:10.651Z,2.65
2022-09-05T23:53:37.690Z,2.80
2022-09-05T23:56:05.971Z,3.25
2022-09-05T23:58:33.114Z,3.10
